createdAt,value
2018-08-22T00:00:23.265Z,14.58
2018-08-22T00:01:23.513Z,14.57
2018-08-22T00:02:23.504Z,14.57
2018-08-22T00:03:23.501Z,14.58
2018-08-22T00:04:23.493Z,14.57
2018-08-22T00:05:23.487Z,14.61
2018-08-22T00:06:23.480Z,14.6
2018-08-22T00:07:23.473Z,14.57
2018-08-22T00:08:23.481Z,14.55
2018-08-22T00:09:23.463Z,14.55
2018-08-22T00:10:23.206Z,14.52
2018-08-22T00:11:23.451Z,14.58
2018-08-22T00:12:23.194Z,14.51
2018-08-22T00:13:23.190Z,14.55
2018-08-22T00:14:23.180Z,14.55
2018-08-22T00:15:23.652Z,14.51
2018-08-22T00:16:23.421Z,14.37
2018-08-22T00:17:23.418Z,14.45
2018-08-22T00:18:23.406Z,14.36
2018-08-22T00:19:23.152Z,14.42
2018-08-22T00:20:23.400Z,14.46
2018-08-22T00:21:23.387Z,14.4
2018-08-22T00:22:23.411Z,14.42
2018-08-22T00:23:23.376Z,14.36
2018-08-22T00:24:23.122Z,14.45
2018-08-22T00:25:23.487Z,14.46
2018-08-22T00:26:23.356Z,14.43
2018-08-22T00:27:23.405Z,14.36
2018-08-22T00:28:23.348Z,14.27
2018-08-22T00:29:23.751Z,14.37
2018-08-22T00:30:23.082Z,14.25
2018-08-22T00:31:23.332Z,14.27
2018-08-22T00:32:23.320Z,14.25
2018-08-22T00:33:23.312Z,14.33
2018-08-22T00:34:23.306Z,14.32
2018-08-22T00:35:23.304Z,14.29
2018-08-22T00:36:23.297Z,14.25
2018-08-22T00:37:23.037Z,14.22
2018-08-22T00:38:23.032Z,14.24
2018-08-22T00:39:23.276Z,14.22
2018-08-22T00:40:23.271Z,14.21
2018-08-22T00:41:23.263Z,14.18
2018-08-22T00:42:23.272Z,14.21
2018-08-22T00:43:23.248Z,14.14
2018-08-22T00:44:22.992Z,14.14
2018-08-22T00:45:23.244Z,14.09
2018-08-22T00:46:23.231Z,14.1
2018-08-22T00:47:23.222Z,14.15
2018-08-22T00:48:23.219Z,14.07
2018-08-22T00:49:23.212Z,14.17
2018-08-22T00:50:22.954Z,14.07
2018-08-22T00:51:23.198Z,14.07
2018-08-22T00:52:22.944Z,14.06
2018-08-22T00:53:23.191Z,14.06
2018-08-22T00:54:22.928Z,14.06
2018-08-22T00:55:22.673Z,14.03
2018-08-22T00:56:23.166Z,13.99
2018-08-22T00:57:23.166Z,13.92
2018-08-22T00:58:23.161Z,13.88
2018-08-22T00:59:23.152Z,13.89
2018-08-22T01:00:23.148Z,13.91
2018-08-22T01:01:23.133Z,13.87
2018-08-22T01:02:23.127Z,13.88
2018-08-22T01:03:23.121Z,13.89
2018-08-22T01:04:22.864Z,13.89
2018-08-22T01:05:23.108Z,13.95
2018-08-22T01:06:23.104Z,13.89
2018-08-22T01:07:23.095Z,13.88
2018-08-22T01:08:23.096Z,13.87
2018-08-22T01:09:22.829Z,13.88
2018-08-22T01:10:23.078Z,13.81
2018-08-22T01:11:22.817Z,13.87
2018-08-22T01:12:23.065Z,13.85
2018-08-22T01:13:23.056Z,13.7
2018-08-22T01:14:23.048Z,13.78
2018-08-22T01:15:23.043Z,13.75
2018-08-22T01:16:23.034Z,13.82
2018-08-22T01:17:23.030Z,13.75
2018-08-22T01:18:23.023Z,13.73
2018-08-22T01:19:23.025Z,13.77
2018-08-22T01:20:23.012Z,13.71
2018-08-22T01:21:23.012Z,13.71
2018-08-22T01:22:22.995Z,13.77
2018-08-22T01:23:22.993Z,13.67
2018-08-22T01:24:22.984Z,13.55
2018-08-22T01:25:22.725Z,13.69
2018-08-22T01:26:22.722Z,13.66
2018-08-22T01:27:22.715Z,13.63
2018-08-22T01:28:22.705Z,13.6
2018-08-22T01:29:22.950Z,13.6
2018-08-22T01:30:22.942Z,13.62
2018-08-22T01:31:22.935Z,13.54
2018-08-22T01:32:22.936Z,13.52
2018-08-22T01:33:22.924Z,13.55
2018-08-22T01:34:22.923Z,13.51
2018-08-22T01:35:22.907Z,13.51
2018-08-22T01:36:22.655Z,13.54
2018-08-22T01:37:22.896Z,13.52
2018-08-22T01:38:22.888Z,13.51
2018-08-22T01:39:22.633Z,13.52
2018-08-22T01:40:22.623Z,13.55
2018-08-22T01:41:22.870Z,13.51
2018-08-22T01:42:22.862Z,13.54
2018-08-22T01:43:22.605Z,13.42
2018-08-22T01:44:22.846Z,13.41
2018-08-22T01:45:22.890Z,13.41
2018-08-22T01:46:22.840Z,13.33
2018-08-22T01:47:22.827Z,13.39
2018-08-22T01:48:22.832Z,13.36
2018-08-22T01:49:22.814Z,13.45
2018-08-22T01:50:22.808Z,13.38
2018-08-22T01:51:22.550Z,13.42
2018-08-22T01:52:22.793Z,13.38
2018-08-22T01:53:22.787Z,13.2
2018-08-22T01:54:22.779Z,13.25
2018-08-22T01:55:22.775Z,13.25
2018-08-22T01:56:22.517Z,13.25
2018-08-22T01:57:22.514Z,13.29
2018-08-22T01:58:22.752Z,13.23
2018-08-22T01:59:22.750Z,13.22
2018-08-22T02:00:22.487Z,13.41
2018-08-22T02:01:22.744Z,13.23
2018-08-22T02:02:22.477Z,13.23
2018-08-22T02:03:22.467Z,13.22
2018-08-22T02:04:22.711Z,13.2
2018-08-22T02:05:22.706Z,13.2
2018-08-22T02:06:22.698Z,13.25
2018-08-22T02:07:22.690Z,13.28
2018-08-22T02:08:22.729Z,13.14
2018-08-22T02:09:22.675Z,13.19
2018-08-22T02:10:22.671Z,13.23
2018-08-22T02:11:22.416Z,13.25
2018-08-22T02:12:22.406Z,13.19
2018-08-22T02:13:22.649Z,13.19
2018-08-22T02:14:22.391Z,13.22
2018-08-22T02:15:22.634Z,13.2
2018-08-22T02:16:22.375Z,13.25
2018-08-22T02:17:22.619Z,13.17
2018-08-22T02:18:22.616Z,13.17
2018-08-22T02:19:22.355Z,13.15
2018-08-22T02:20:22.350Z,13.14
2018-08-22T02:21:22.591Z,13.11
2018-08-22T02:22:22.585Z,13.1
2018-08-22T02:23:22.584Z,13.12
2018-08-22T02:24:22.570Z,13.11
2018-08-22T02:25:22.714Z,13.15
2018-08-22T02:26:22.562Z,13.1
2018-08-22T02:27:22.562Z,13.12
2018-08-22T02:28:22.546Z,13.01
2018-08-22T02:29:22.548Z,13.1
2018-08-22T02:30:22.555Z,13.05
2018-08-22T02:31:22.538Z,13
2018-08-22T02:32:22.516Z,12.9
2018-08-22T02:33:22.258Z,12.96
2018-08-22T02:34:22.254Z,12.92
2018-08-22T02:35:22.497Z,13
2018-08-22T02:36:22.491Z,12.92
2018-08-22T02:37:22.483Z,12.87
2018-08-22T02:38:22.473Z,12.82
2018-08-22T02:39:22.215Z,12.9
2018-08-22T02:40:22.461Z,12.9
2018-08-22T02:41:22.455Z,12.87
2018-08-22T02:42:22.446Z,12.82
2018-08-22T02:43:22.442Z,12.89
2018-08-22T02:44:22.192Z,12.77
2018-08-22T02:45:22.430Z,12.68
2018-08-22T02:46:22.425Z,12.78
2018-08-22T02:47:22.410Z,12.75
2018-08-22T02:48:22.400Z,12.71
2018-08-22T02:49:22.393Z,12.75
2018-08-22T02:50:22.392Z,12.77
2018-08-22T02:51:22.382Z,12.72
2018-08-22T02:52:22.374Z,12.75
2018-08-22T02:53:22.374Z,12.72
2018-08-22T02:54:22.359Z,12.75
2018-08-22T02:55:22.107Z,12.78
2018-08-22T02:56:22.349Z,12.79
2018-08-22T02:57:22.337Z,12.72
2018-08-22T02:58:22.333Z,12.83
2018-08-22T02:59:22.322Z,12.82
2018-08-22T03:00:22.319Z,12.77
2018-08-22T03:01:22.314Z,12.89
2018-08-22T03:02:22.300Z,12.75
2018-08-22T03:03:22.299Z,12.77
2018-08-22T03:04:22.035Z,12.72
2018-08-22T03:05:22.279Z,12.9
2018-08-22T03:06:22.272Z,12.85
2018-08-22T03:07:22.266Z,12.87
2018-08-22T03:08:22.286Z,12.89
2018-08-22T03:09:22.253Z,12.82
2018-08-22T03:10:22.244Z,12.87
2018-08-22T03:11:22.234Z,12.86
2018-08-22T03:12:22.233Z,12.83
2018-08-22T03:13:21.974Z,12.9
2018-08-22T03:14:22.213Z,12.86
2018-08-22T03:15:21.955Z,12.82
2018-08-22T03:16:21.946Z,12.85
2018-08-22T03:17:21.943Z,12.74
2018-08-22T03:18:22.188Z,12.74
2018-08-22T03:19:22.179Z,12.72
2018-08-22T03:20:22.170Z,12.72
2018-08-22T03:21:22.171Z,12.64
2018-08-22T03:22:22.157Z,12.7
2018-08-22T03:23:22.148Z,12.67
2018-08-22T03:24:22.149Z,12.7
2018-08-22T03:25:22.135Z,12.68
2018-08-22T03:26:22.300Z,12.6
2018-08-22T03:27:22.118Z,12.67
2018-08-22T03:28:22.113Z,12.67
2018-08-22T03:29:22.105Z,12.59
2018-08-22T03:30:21.847Z,12.68
2018-08-22T03:31:22.096Z,12.71
2018-08-22T03:32:22.089Z,12.7
2018-08-22T03:33:22.079Z,12.67
2018-08-22T03:34:22.076Z,12.7
2018-08-22T03:35:22.066Z,12.77
2018-08-22T03:36:21.802Z,12.75
2018-08-22T03:37:22.047Z,12.72
2018-08-22T03:38:22.043Z,12.72
2018-08-22T03:39:21.780Z,12.72
2018-08-22T03:40:22.026Z,12.77
2018-08-22T03:41:22.020Z,12.79
2018-08-22T03:42:22.013Z,12.79
2018-08-22T03:43:22.001Z,12.78
2018-08-22T03:44:21.993Z,12.74
2018-08-22T03:45:21.990Z,12.82
2018-08-22T03:46:21.981Z,12.87
2018-08-22T03:47:21.972Z,12.86
2018-08-22T03:48:21.967Z,12.72
2018-08-22T03:49:21.959Z,12.87
2018-08-22T03:50:21.702Z,12.74
2018-08-22T03:51:21.441Z,12.78
2018-08-22T03:52:21.684Z,12.71
2018-08-22T03:53:21.931Z,12.75
2018-08-22T03:54:21.924Z,12.77
2018-08-22T03:55:21.666Z,12.75
2018-08-22T03:56:21.907Z,12.72
2018-08-22T03:57:21.651Z,12.77
2018-08-22T03:58:21.892Z,12.75
2018-08-22T03:59:21.889Z,12.77
2018-08-22T04:00:21.878Z,12.68
2018-08-22T04:01:21.876Z,12.75
2018-08-22T04:02:21.870Z,12.74
2018-08-22T04:03:21.856Z,12.74
2018-08-22T04:04:21.849Z,12.7
2018-08-22T04:05:21.841Z,12.7
2018-08-22T04:06:21.581Z,12.77
2018-08-22T04:07:21.829Z,12.74
2018-08-22T04:08:21.822Z,12.78
2018-08-22T04:09:21.817Z,12.77
2018-08-22T04:10:21.555Z,12.72
2018-08-22T04:11:21.799Z,12.75
2018-08-22T04:12:21.790Z,12.83
2018-08-22T04:13:21.785Z,12.79
2018-08-22T04:14:21.774Z,12.71
2018-08-22T04:15:21.780Z,12.75
2018-08-22T04:16:21.765Z,12.83
2018-08-22T04:17:21.756Z,12.82
2018-08-22T04:18:21.746Z,12.92
2018-08-22T04:19:21.740Z,12.92
2018-08-22T04:20:21.741Z,12.87
2018-08-22T04:21:21.474Z,12.93
2018-08-22T04:22:21.471Z,13.03
2018-08-22T04:23:21.716Z,13
2018-08-22T04:24:21.201Z,13.1
2018-08-22T04:25:21.696Z,13.14
2018-08-22T04:26:21.692Z,13.12
2018-08-22T04:27:21.684Z,13.23
2018-08-22T04:28:21.677Z,13.32
2018-08-22T04:29:21.673Z,13.38
2018-08-22T04:30:21.669Z,13.52
2018-08-22T04:31:21.410Z,13.63
2018-08-22T04:32:21.648Z,13.69
2018-08-22T04:33:21.642Z,13.87
2018-08-22T04:34:21.637Z,14.03
2018-08-22T04:35:21.629Z,14.1
2018-08-22T04:36:21.626Z,14.24
2018-08-22T04:37:21.668Z,14.51
2018-08-22T04:38:21.357Z,14.55
2018-08-22T04:39:21.610Z,14.75
2018-08-22T04:40:21.602Z,14.96
2018-08-22T04:41:21.343Z,15.16
2018-08-22T04:42:21.592Z,15.31
2018-08-22T04:43:21.582Z,15.5
2018-08-22T04:44:21.576Z,15.67
2018-08-22T04:45:21.579Z,15.9
2018-08-22T04:46:21.572Z,15.93
2018-08-22T04:47:21.565Z,16.21
2018-08-22T04:48:21.790Z,16.42
2018-08-22T04:49:21.552Z,16.63
2018-08-22T04:50:21.548Z,16.86
2018-08-22T04:51:21.546Z,16.98
2018-08-22T04:52:21.543Z,17.21
2018-08-22T04:53:21.537Z,17.4
2018-08-22T04:54:21.534Z,17.71
2018-08-22T04:55:21.278Z,17.86
2018-08-22T04:56:21.276Z,18.05
2018-08-22T04:57:21.271Z,18.23
2018-08-22T04:58:21.269Z,18.33
2018-08-22T04:59:21.268Z,18.6
2018-08-22T05:00:21.525Z,18.81
2018-08-22T05:01:21.259Z,19
2018-08-22T05:02:21.507Z,19.18
2018-08-22T05:03:21.259Z,19.33
2018-08-22T05:04:21.512Z,19.5
2018-08-22T05:05:21.248Z,19.77
2018-08-22T05:06:21.505Z,19.91
2018-08-22T05:07:21.247Z,20.08
2018-08-22T05:08:21.509Z,20.26
2018-08-22T05:09:21.508Z,20.47
2018-08-22T05:10:21.494Z,20.61
2018-08-22T05:11:21.494Z,20.88
2018-08-22T05:12:21.491Z,21.12
2018-08-22T05:13:21.490Z,21.35
2018-08-22T05:14:21.499Z,21.59
2018-08-22T05:15:21.492Z,21.62
2018-08-22T05:16:21.490Z,21.92
2018-08-22T05:17:21.496Z,22.02
2018-08-22T05:18:21.494Z,22.24
2018-08-22T05:19:21.495Z,22.42
2018-08-22T05:20:21.491Z,22.64
2018-08-22T05:21:21.500Z,22.9
2018-08-22T05:22:21.500Z,22.91
2018-08-22T05:23:21.497Z,23.13
2018-08-22T05:24:21.502Z,23.42
2018-08-22T05:25:21.503Z,23.5
2018-08-22T05:26:22.784Z,23.68
2018-08-22T05:27:21.509Z,23.85
2018-08-22T05:28:21.507Z,23.97
2018-08-22T05:29:21.504Z,24.09
2018-08-22T05:30:21.510Z,24.27
2018-08-22T05:31:21.514Z,24.42
2018-08-22T05:32:21.524Z,24.64
2018-08-22T05:33:21.521Z,24.81
2018-08-22T05:34:21.524Z,25.03
2018-08-22T05:35:21.532Z,25.21
2018-08-22T05:36:21.531Z,25.39
2018-08-22T05:37:21.538Z,25.54
2018-08-22T05:38:21.547Z,25.77
2018-08-22T05:39:21.290Z,25.9
2018-08-22T05:40:21.543Z,25.99
2018-08-22T05:41:21.555Z,26.26
2018-08-22T05:42:21.555Z,26.39
2018-08-22T05:43:21.308Z,26.58
2018-08-22T05:44:21.562Z,26.73
2018-08-22T05:45:21.567Z,26.82
2018-08-22T05:47:21.579Z,27.03
2018-08-22T05:48:21.585Z,27.06
2018-08-22T05:49:21.889Z,27.09
2018-08-22T05:50:21.628Z,27.28
2018-08-22T05:51:21.351Z,27.59
2018-08-22T05:52:22.882Z,27.78
2018-08-22T05:53:21.621Z,27.81
2018-08-22T05:54:22.948Z,28
2018-08-22T05:56:21.634Z,28.27
2018-08-22T05:57:21.638Z,28.39
2018-08-22T05:58:21.394Z,28.4
2018-08-22T05:59:21.653Z,28.55
2018-08-22T06:00:21.414Z,28.58
2018-08-22T06:01:21.667Z,28.66
2018-08-22T06:02:21.677Z,28.8
2018-08-22T06:03:21.602Z,28.95
2018-08-22T06:04:21.450Z,29
2018-08-22T06:05:21.699Z,29.06
2018-08-22T06:06:21.459Z,29.24
2018-08-22T06:07:21.457Z,29.36
2018-08-22T06:08:21.717Z,29.58
2018-08-22T06:09:21.475Z,29.78
2018-08-22T06:10:21.483Z,29.9
2018-08-22T06:11:21.489Z,30.02
2018-08-22T06:12:21.759Z,30.13
2018-08-22T06:13:21.808Z,30.23
2018-08-22T06:14:21.771Z,30.34
2018-08-22T06:15:21.522Z,30.43
2018-08-22T06:16:21.794Z,30.64
2018-08-22T06:17:21.288Z,30.72
2018-08-22T06:18:21.548Z,30.75
2018-08-22T06:19:21.818Z,30.91
2018-08-22T06:20:21.817Z,30.99
2018-08-22T06:21:21.574Z,31.19
2018-08-22T06:22:21.836Z,31.2
2018-08-22T06:23:21.592Z,31.26
2018-08-22T06:24:21.851Z,31.39
2018-08-22T06:25:21.876Z,31.46
2018-08-22T06:26:21.878Z,31.44
2018-08-22T06:27:21.884Z,31.48
2018-08-22T06:28:21.903Z,31.39
2018-08-22T06:29:21.908Z,31.48
2018-08-22T06:30:21.915Z,31.5
2018-08-22T06:31:21.921Z,31.43
2018-08-22T06:32:21.948Z,31.53
2018-08-22T06:33:21.945Z,31.48
2018-08-22T06:34:21.703Z,31.7
2018-08-22T06:35:21.963Z,31.7
2018-08-22T06:36:22.395Z,31.72
2018-08-22T06:37:21.999Z,31.89
2018-08-22T06:38:21.990Z,31.88
2018-08-22T06:39:22.006Z,31.96
2018-08-22T06:40:21.766Z,32.03
2018-08-22T06:41:22.272Z,32.29
2018-08-22T06:42:22.032Z,32.41
2018-08-22T06:43:22.047Z,32.55
2018-08-22T06:44:22.451Z,32.52
2018-08-22T06:45:22.070Z,32.55
2018-08-22T06:46:22.075Z,32.5
2018-08-22T06:47:22.497Z,32.65
2018-08-22T06:48:22.096Z,32.7
2018-08-22T06:49:21.857Z,32.74
2018-08-22T06:50:22.500Z,32.75
2018-08-22T06:51:22.135Z,33.03
2018-08-22T06:52:22.142Z,33
2018-08-22T06:53:21.901Z,33.09
2018-08-22T06:54:21.913Z,33.14
2018-08-22T06:55:21.929Z,33.16
2018-08-22T06:56:22.189Z,33.34
2018-08-22T06:57:22.318Z,33.38
2018-08-22T06:58:22.219Z,33.47
2018-08-22T06:59:22.226Z,33.38
2018-08-22T07:00:21.983Z,33.42
2018-08-22T07:01:22.248Z,33.44
2018-08-22T07:02:22.263Z,33.59
2018-08-22T07:03:22.269Z,33.72
2018-08-22T07:04:22.029Z,33.82
2018-08-22T07:05:22.043Z,33.72
2018-08-22T07:06:22.307Z,33.79
2018-08-22T07:07:22.317Z,33.75
2018-08-22T07:08:22.356Z,33.73
2018-08-22T07:09:22.088Z,33.82
2018-08-22T07:10:22.100Z,34
2018-08-22T07:11:35.100Z,34.15
2018-08-22T07:12:23.600Z,34.16
2018-08-22T07:13:22.137Z,34.44
2018-08-22T07:14:22.147Z,34.47
2018-08-22T07:15:22.415Z,34.61
2018-08-22T07:16:22.425Z,34.54
2018-08-22T07:17:22.435Z,34.46
2018-08-22T07:18:22.200Z,34.46
2018-08-22T07:19:22.466Z,34.4
2018-08-22T07:20:22.472Z,34.4
2018-08-22T07:21:22.237Z,34.42
2018-08-22T07:22:22.506Z,34.39
2018-08-22T07:23:22.517Z,34.42
2018-08-22T07:24:22.533Z,34.47
2018-08-22T07:25:22.532Z,34.47
2018-08-22T07:26:22.544Z,34.53
2018-08-22T07:27:22.310Z,34.56
2018-08-22T07:28:22.320Z,34.81
2018-08-22T07:29:35.064Z,34.96
2018-08-22T07:30:22.596Z,35.02
2018-08-22T07:31:22.607Z,35.14
2018-08-22T07:32:23.174Z,35.21
2018-08-22T07:33:22.634Z,35.22
2018-08-22T07:34:22.390Z,35.26
2018-08-22T07:35:22.654Z,35.31
2018-08-22T07:36:22.666Z,35.41
2018-08-22T07:37:22.682Z,35.58
2018-08-22T07:38:22.691Z,35.56
2018-08-22T07:39:22.717Z,35.56
2018-08-22T07:40:22.466Z,35.63
2018-08-22T07:41:22.483Z,35.66
2018-08-22T07:42:22.492Z,35.52
2018-08-22T07:43:22.758Z,35.16
2018-08-22T07:44:22.778Z,34.89
2018-08-22T07:45:22.783Z,34.85
2018-08-22T07:46:22.803Z,34.88
2018-08-22T07:47:22.564Z,34.82
2018-08-22T07:48:22.824Z,34.87
2018-08-22T07:49:22.838Z,34.84
2018-08-22T07:50:23.338Z,34.91
2018-08-22T07:52:22.883Z,35.06
2018-08-22T07:53:23.476Z,35.09
2018-08-22T07:54:22.910Z,35.22
2018-08-22T07:55:22.670Z,35.33
2018-08-22T07:56:22.940Z,35.29
2018-08-22T07:57:22.963Z,35.34
2018-08-22T07:58:24.243Z,35.37
2018-08-22T07:59:22.987Z,35.4
2018-08-22T08:00:22.746Z,35.45
2018-08-22T08:01:23.015Z,35.4
2018-08-22T08:02:25.577Z,35.33
2018-08-22T08:03:23.042Z,35.41
2018-08-22T08:04:22.810Z,35.48
2018-08-22T08:05:23.322Z,35.66
2018-08-22T08:06:23.090Z,35.63
2018-08-22T08:07:22.601Z,35.63
2018-08-22T08:08:23.125Z,35.66
2018-08-22T08:09:23.141Z,35.7
2018-08-22T08:10:23.152Z,35.63
2018-08-22T08:11:22.913Z,35.58
2018-08-22T08:12:22.928Z,35.5
2018-08-22T08:13:22.981Z,35.34
2018-08-22T08:14:22.959Z,35.26
2018-08-22T08:15:23.251Z,35.16
2018-08-22T08:16:23.236Z,34.96
2018-08-22T08:18:23.373Z,34.62
2018-08-22T08:19:25.855Z,34.52
2018-08-22T08:20:23.308Z,34.35
2018-08-22T08:21:23.307Z,34.27
2018-08-22T08:22:23.322Z,34
2018-08-22T08:23:23.333Z,33.84
2018-08-22T08:24:23.346Z,33.49
2018-08-22T08:25:23.358Z,33.28
2018-08-22T08:26:23.127Z,33.15
2018-08-22T08:27:23.393Z,32.99
2018-08-22T08:28:29.890Z,32.85
2018-08-22T08:29:23.409Z,32.65
2018-08-22T08:30:23.425Z,32.63
2018-08-22T08:31:23.435Z,32.47
2018-08-22T08:32:23.453Z,32.25
2018-08-22T08:33:23.206Z,32.04
2018-08-22T08:34:23.474Z,31.8
2018-08-22T08:35:23.481Z,31.57
2018-08-22T08:36:23.242Z,31.43
2018-08-22T08:37:23.252Z,31.13
2018-08-22T08:38:23.264Z,30.94
2018-08-22T08:39:23.325Z,30.58
2018-08-22T08:40:23.534Z,30.32
2018-08-22T08:41:23.293Z,30.08
2018-08-22T08:42:23.555Z,29.82
2018-08-22T08:43:23.850Z,29.6
2018-08-22T08:44:23.325Z,29.41
2018-08-22T08:45:23.583Z,29.23
2018-08-22T08:46:23.340Z,28.93
2018-08-22T08:47:23.627Z,28.81
2018-08-22T08:48:23.603Z,28.59
2018-08-22T08:49:23.686Z,28.44
2018-08-22T08:51:23.438Z,28.14
2018-08-22T08:52:23.665Z,28.02
2018-08-22T08:53:23.638Z,27.88
2018-08-22T08:54:23.390Z,27.7
2018-08-22T08:55:23.673Z,27.67
2018-08-22T08:56:23.679Z,27.6
2018-08-22T08:57:23.948Z,27.55
2018-08-22T08:58:23.414Z,27.47
2018-08-22T08:59:23.671Z,27.24
2018-08-22T09:00:23.678Z,27.27
2018-08-22T09:01:23.678Z,27.09
2018-08-22T09:03:23.690Z,27.02
2018-08-22T09:04:23.757Z,26.89
2018-08-22T09:05:23.724Z,26.85
2018-08-22T09:06:23.823Z,26.69
2018-08-22T09:07:23.448Z,26.66
2018-08-22T09:08:23.451Z,26.54
2018-08-22T09:09:23.709Z,26.4
2018-08-22T09:10:23.710Z,26.25
2018-08-22T09:11:23.726Z,26.12
2018-08-22T09:12:24.045Z,26.05
2018-08-22T09:13:23.722Z,26.09
2018-08-22T09:14:23.723Z,26.09
2018-08-22T09:15:23.728Z,25.83
2018-08-22T09:16:23.742Z,25.99
2018-08-22T09:17:24.030Z,25.98
2018-08-22T09:18:23.740Z,25.92
2018-08-22T09:19:23.734Z,25.83
2018-08-22T09:20:23.738Z,25.9
2018-08-22T09:21:23.904Z,25.97
2018-08-22T09:22:23.746Z,25.9
2018-08-22T09:23:23.742Z,25.82
2018-08-22T09:24:23.845Z,25.83
2018-08-22T09:25:23.745Z,25.83
2018-08-22T09:26:23.752Z,25.83
2018-08-22T09:27:23.501Z,25.95
2018-08-22T09:28:23.757Z,25.9
2018-08-22T09:29:23.759Z,25.9
2018-08-22T09:30:23.506Z,25.9
2018-08-22T09:31:23.828Z,25.87
2018-08-22T09:32:23.760Z,25.83
2018-08-22T09:33:23.767Z,25.83
2018-08-22T09:34:23.775Z,25.76
2018-08-22T09:35:23.567Z,25.73
2018-08-22T09:36:23.799Z,25.67
2018-08-22T09:37:23.770Z,25.65
2018-08-22T09:38:23.773Z,25.64
2018-08-22T09:39:24.039Z,25.64
2018-08-22T09:40:23.872Z,25.64
2018-08-22T09:41:23.778Z,25.67
2018-08-22T09:42:23.527Z,25.7
2018-08-22T09:43:24.090Z,25.73
2018-08-22T09:44:23.829Z,25.79
2018-08-22T09:45:23.788Z,25.82
2018-08-22T09:46:23.810Z,25.92
2018-08-22T09:47:23.535Z,25.83
2018-08-22T09:48:23.794Z,25.85
2018-08-22T09:49:23.795Z,25.87
2018-08-22T09:50:23.793Z,25.79
2018-08-22T09:51:23.795Z,25.88
2018-08-22T09:52:23.797Z,25.91
2018-08-22T09:53:23.798Z,25.9
2018-08-22T09:54:23.799Z,25.83
2018-08-22T09:55:23.807Z,25.8
2018-08-22T09:56:23.802Z,25.88
2018-08-22T09:57:23.552Z,25.87
2018-08-22T09:58:23.673Z,25.83
2018-08-22T09:59:23.807Z,25.9
2018-08-22T10:00:23.873Z,25.82
2018-08-22T10:01:23.562Z,25.98
2018-08-22T10:02:23.819Z,26.02
2018-08-22T10:03:23.562Z,25.95
2018-08-22T10:04:23.819Z,25.98
2018-08-22T10:05:23.566Z,25.87
2018-08-22T10:06:23.780Z,25.99
2018-08-22T10:07:23.972Z,25.98
2018-08-22T10:08:23.821Z,26.01
2018-08-22T10:09:23.834Z,26.01
2018-08-22T10:10:23.869Z,25.98
2018-08-22T10:11:23.829Z,26.1
2018-08-22T10:12:23.828Z,26.09
2018-08-22T10:13:23.851Z,25.98
2018-08-22T10:14:23.838Z,26.12
2018-08-22T10:15:23.833Z,26.1
2018-08-22T10:16:23.838Z,26.15
2018-08-22T10:17:24.092Z,26.12
2018-08-22T10:18:23.851Z,26.06
2018-08-22T10:19:23.841Z,26.06
2018-08-22T10:20:23.874Z,26.06
2018-08-22T10:21:23.592Z,26.18
2018-08-22T10:22:23.848Z,26.15
2018-08-22T10:23:23.660Z,26.15
2018-08-22T10:24:23.597Z,26.23
2018-08-22T10:25:23.598Z,26.21
2018-08-22T10:26:23.866Z,26.23
2018-08-22T10:27:23.605Z,26.25
2018-08-22T10:28:23.859Z,26.26
2018-08-22T10:29:23.857Z,26.28
2018-08-22T10:30:23.861Z,26.18
2018-08-22T10:31:23.863Z,26.2
2018-08-22T10:32:23.866Z,26.26
2018-08-22T10:33:23.869Z,26.23
2018-08-22T10:34:23.869Z,26.23
2018-08-22T10:35:23.869Z,26.23
2018-08-22T10:36:23.869Z,26.3
2018-08-22T10:37:23.871Z,26.28
2018-08-22T10:38:23.881Z,26.33
2018-08-22T10:39:23.963Z,26.3
2018-08-22T10:40:23.880Z,26.3
2018-08-22T10:41:23.882Z,26.39
2018-08-22T10:42:23.883Z,26.37
2018-08-22T10:43:23.880Z,26.39
2018-08-22T10:44:23.982Z,26.32
2018-08-22T10:45:23.886Z,26.39
2018-08-22T10:46:23.892Z,26.36
2018-08-22T10:47:23.892Z,26.37
2018-08-22T10:48:23.977Z,26.37
2018-08-22T10:49:23.936Z,26.4
2018-08-22T10:50:23.647Z,26.4
2018-08-22T10:51:23.895Z,26.39
2018-08-22T10:52:23.897Z,26.35
2018-08-22T10:53:23.902Z,26.43
2018-08-22T10:54:23.907Z,26.36
2018-08-22T10:55:23.961Z,26.33
2018-08-22T10:56:23.654Z,26.35
2018-08-22T10:57:23.908Z,26.37
2018-08-22T10:58:23.909Z,26.35
2018-08-22T10:59:23.662Z,26.39
2018-08-22T11:00:23.661Z,26.3
2018-08-22T11:01:23.665Z,26.32
2018-08-22T11:02:23.666Z,26.33
2018-08-22T11:03:23.921Z,26.35
2018-08-22T11:04:23.673Z,26.32
2018-08-22T11:05:23.921Z,26.37
2018-08-22T11:06:23.927Z,26.37
2018-08-22T11:07:23.964Z,26.3
2018-08-22T11:08:23.677Z,26.32
2018-08-22T11:09:23.931Z,26.33
2018-08-22T11:10:23.931Z,26.3
2018-08-22T11:11:23.934Z,26.43
2018-08-22T11:12:23.933Z,26.36
2018-08-22T11:13:23.941Z,26.36
2018-08-22T11:14:23.936Z,26.36
2018-08-22T11:15:23.940Z,26.33
2018-08-22T11:16:23.690Z,26.4
2018-08-22T11:17:23.948Z,26.37
2018-08-22T11:18:23.947Z,26.32
2018-08-22T11:19:23.947Z,26.39
2018-08-22T11:20:23.948Z,26.51
2018-08-22T11:21:23.953Z,26.5
2018-08-22T11:22:24.145Z,26.39
2018-08-22T11:23:23.950Z,26.55
2018-08-22T11:24:23.703Z,26.62
2018-08-22T11:25:23.963Z,26.55
2018-08-22T11:26:23.455Z,26.57
2018-08-22T11:27:23.716Z,26.63
2018-08-22T11:28:23.961Z,26.67
2018-08-22T11:29:23.977Z,26.62
2018-08-22T11:30:23.964Z,26.76
2018-08-22T11:31:23.970Z,26.72
2018-08-22T11:32:23.968Z,26.69
2018-08-22T11:33:23.971Z,26.8
2018-08-22T11:34:24.005Z,26.77
2018-08-22T11:35:23.976Z,26.75
2018-08-22T11:36:23.729Z,26.81
2018-08-22T11:37:23.984Z,26.81
2018-08-22T11:38:23.982Z,26.91
2018-08-22T11:39:23.990Z,26.89
2018-08-22T11:40:23.985Z,26.97
2018-08-22T11:41:23.986Z,26.94
2018-08-22T11:42:23.992Z,26.94
2018-08-22T11:43:23.988Z,26.97
2018-08-22T11:44:23.998Z,26.88
2018-08-22T11:45:23.999Z,26.97
2018-08-22T11:46:23.995Z,26.85
2018-08-22T11:47:23.750Z,26.91
2018-08-22T11:49:24.011Z,26.85
2018-08-22T11:50:24.003Z,26.94
2018-08-22T11:51:24.007Z,26.99
2018-08-22T11:52:24.006Z,26.97
2018-08-22T11:53:24.011Z,26.99
2018-08-22T11:54:23.761Z,27
2018-08-22T11:55:24.020Z,26.95
2018-08-22T11:56:24.015Z,27.03
2018-08-22T11:57:24.019Z,27.02
2018-08-22T11:58:24.029Z,27
2018-08-22T11:59:24.026Z,27.07
2018-08-22T12:00:24.025Z,27
2018-08-22T12:01:24.028Z,26.99
2018-08-22T12:02:24.032Z,27.04
2018-08-22T12:03:23.808Z,26.97
2018-08-22T12:04:24.032Z,27
2018-08-22T12:05:24.034Z,27.04
2018-08-22T12:06:24.035Z,27.1
2018-08-22T12:07:24.036Z,27.03
2018-08-22T12:08:24.038Z,27.1
2018-08-22T12:09:56.571Z,27.04
2018-08-22T12:10:23.797Z,27.12
2018-08-22T12:11:24.048Z,27.03
2018-08-22T12:12:23.796Z,27.17
2018-08-22T12:13:24.064Z,27.13
2018-08-22T12:14:24.055Z,27.12
2018-08-22T12:15:23.801Z,27.13
2018-08-22T12:16:23.803Z,27.17
2018-08-22T12:17:24.064Z,27.14
2018-08-22T12:18:24.062Z,27.29
2018-08-22T12:19:24.072Z,27.31
2018-08-22T12:20:23.812Z,27.31
2018-08-22T12:21:24.066Z,27.29
2018-08-22T12:22:24.071Z,27.32
2018-08-22T12:23:24.282Z,27.37
2018-08-22T12:24:24.079Z,27.41
2018-08-22T12:25:23.834Z,27.4
2018-08-22T12:26:24.078Z,27.34
2018-08-22T12:27:24.633Z,27.41
2018-08-22T12:28:23.834Z,27.41
2018-08-22T12:29:24.087Z,27.41
2018-08-22T12:30:24.101Z,27.41
2018-08-22T12:31:24.093Z,27.41
2018-08-22T12:32:23.840Z,27.46
2018-08-22T12:33:24.094Z,27.46
2018-08-22T12:34:24.104Z,27.44
2018-08-22T12:35:24.097Z,27.44
2018-08-22T12:36:24.108Z,27.44
2018-08-22T12:37:24.101Z,27.43
2018-08-22T12:38:23.857Z,27.39
2018-08-22T12:39:36.847Z,27.44
2018-08-22T12:40:26.192Z,27.41
2018-08-22T12:41:23.859Z,27.44
2018-08-22T12:42:23.861Z,27.43
2018-08-22T12:43:23.863Z,27.46
2018-08-22T12:44:24.232Z,27.46
2018-08-22T12:45:23.866Z,27.43
2018-08-22T12:46:24.130Z,27.43
2018-08-22T12:47:24.125Z,27.46
2018-08-22T12:48:23.875Z,27.41
2018-08-22T12:49:24.132Z,27.44
2018-08-22T12:50:24.335Z,27.4
2018-08-22T12:51:24.133Z,27.47
2018-08-22T12:52:24.134Z,27.47
2018-08-22T12:53:24.138Z,27.44
2018-08-22T12:54:24.141Z,27.51
2018-08-22T12:55:23.894Z,27.49
2018-08-22T12:56:24.144Z,27.59
2018-08-22T12:57:24.267Z,27.5
2018-08-22T12:58:24.153Z,27.5
2018-08-22T12:59:23.898Z,27.51
2018-08-22T13:00:23.900Z,27.49
2018-08-22T13:01:23.903Z,27.5
2018-08-22T13:02:24.157Z,27.59
2018-08-22T13:03:23.656Z,27.62